sensor_id;sensor_type;location;lat;lon;timestamp;P1;durP1;ratioP1;P2;durP2;ratioP2
65896;SDS011;52677;50.898;10.854;2023-05-10T00:00:51;5.18;;;3.35;;
65896;SDS011;52677;50.898;10.854;2023-05-10T00:02:52;4.32;;;3.42;;
65896;SDS011;52677;50.898;10.854;2023-05-10T00:04:52;3.80;;;3.10;;
65896;SDS011;52677;50.898;10.854;2023-05-10T00:06:53;4.22;;;3.35;;
65896;SDS011;52677;50.898;10.854;2023-05-10T00:08:54;4.88;;;3.40;;
65896;SDS011;52677;50.898;10.854;2023-05-10T00:10:54;4.03;;;3.60;;
65896;SDS011;52677;50.898;10.854;2023-05-10T00:12:55;4.05;;;3.08;;
65896;SDS011;52677;50.898;10.854;2023-05-10T00:14:55;3.92;;;3.42;;
65896;SDS011;52677;50.898;10.854;2023-05-10T00:16:55;4.35;;;3.42;;
65896;SDS011;52677;50.898;10.854;2023-05-10T00:18:56;4.07;;;3.35;;
65896;SDS011;52677;50.898;10.854;2023-05-10T00:20:56;5.32;;;3.45;;
65896;SDS011;52677;50.898;10.854;2023-05-10T00:22:56;5.25;;;3.58;;
65896;SDS011;52677;50.898;10.854;2023-05-10T00:24:57;3.83;;;3.05;;
65896;SDS011;52677;50.898;10.854;2023-05-10T00:26:57;3.58;;;3.25;;
65896;SDS011;52677;50.898;10.854;2023-05-10T00:28:58;3.58;;;3.17;;
65896;SDS011;52677;50.898;10.854;2023-05-10T00:30:58;5.50;;;3.42;;
65896;SDS011;52677;50.898;10.854;2023-05-10T00:32:58;5.25;;;3.70;;
65896;SDS011;52677;50.898;10.854;2023-05-10T00:34:59;4.90;;;3.28;;
65896;SDS011;52677;50.898;10.854;2023-05-10T00:36:59;4.20;;;3.33;;
65896;SDS011;52677;50.898;10.854;2023-05-10T00:39:00;4.80;;;3.50;;
65896;SDS011;52677;50.898;10.854;2023-05-10T00:41:00;7.45;;;3.47;;
65896;SDS011;52677;50.898;10.854;2023-05-10T00:43:01;6.70;;;3.63;;
65896;SDS011;52677;50.898;10.854;2023-05-10T00:45:01;4.90;;;3.70;;
65896;SDS011;52677;50.898;10.854;2023-05-10T00:47:01;4.20;;;3.50;;
65896;SDS011;52677;50.898;10.854;2023-05-10T00:49:02;3.92;;;3.35;;
65896;SDS011;52677;50.898;10.854;2023-05-10T00:51:02;5.07;;;3.78;;
65896;SDS011;52677;50.898;10.854;2023-05-10T00:53:03;4.40;;;3.50;;
65896;SDS011;52677;50.898;10.854;2023-05-10T00:55:03;4.60;;;3.85;;
65896;SDS011;52677;50.898;10.854;2023-05-10T00:57:05;4.90;;;3.60;;
65896;SDS011;52677;50.898;10.854;2023-05-10T00:59:06;5.43;;;3.40;;
65896;SDS011;52677;50.898;10.854;2023-05-10T01:01:08;4.95;;;3.65;;
65896;SDS011;52677;50.898;10.854;2023-05-10T01:03:10;5.65;;;3.78;;
65896;SDS011;52677;50.898;10.854;2023-05-10T01:05:11;5.32;;;3.92;;
65896;SDS011;52677;50.898;10.854;2023-05-10T01:07:12;4.85;;;3.70;;
65896;SDS011;52677;50.898;10.854;2023-05-10T01:09:12;6.88;;;4.40;;
65896;SDS011;52677;50.898;10.854;2023-05-10T01:11:13;6.05;;;3.67;;
65896;SDS011;52677;50.898;10.854;2023-05-10T01:13:13;4.82;;;3.78;;
65896;SDS011;52677;50.898;10.854;2023-05-10T01:15:23;5.93;;;4.38;;
65896;SDS011;52677;50.898;10.854;2023-05-10T01:17:23;5.47;;;4.28;;
65896;SDS011;52677;50.898;10.854;2023-05-10T01:19:30;6.18;;;3.38;;
65896;SDS011;52677;50.898;10.854;2023-05-10T01:26:07;5.00;;;3.65;;
65896;SDS011;52677;50.898;10.854;2023-05-10T01:35:16;4.57;;;3.97;;
65896;SDS011;52677;50.898;10.854;2023-05-10T01:37:24;5.82;;;3.50;;
65896;SDS011;52677;50.898;10.854;2023-05-10T01:41:50;5.90;;;3.63;;
65896;SDS011;52677;50.898;10.854;2023-05-10T01:44:04;7.25;;;3.92;;
65896;SDS011;52677;50.898;10.854;2023-05-10T01:46:07;4.78;;;3.80;;
65896;SDS011;52677;50.898;10.854;2023-05-10T01:48:11;4.95;;;3.70;;
65896;SDS011;52677;50.898;10.854;2023-05-10T01:50:18;4.47;;;3.90;;
65896;SDS011;52677;50.898;10.854;2023-05-10T01:52:56;4.65;;;3.97;;
65896;SDS011;52677;50.898;10.854;2023-05-10T01:55:01;4.30;;;3.80;;
65896;SDS011;52677;50.898;10.854;2023-05-10T01:57:05;5.40;;;4.00;;
65896;SDS011;52677;50.898;10.854;2023-05-10T01:59:11;5.18;;;4.20;;
65896;SDS011;52677;50.898;10.854;2023-05-10T02:01:15;5.45;;;4.00;;
65896;SDS011;52677;50.898;10.854;2023-05-10T02:03:16;5.20;;;4.70;;
65896;SDS011;52677;50.898;10.854;2023-05-10T02:05:20;4.28;;;3.50;;
65896;SDS011;52677;50.898;10.854;2023-05-10T02:07:22;4.15;;;3.35;;
65896;SDS011;52677;50.898;10.854;2023-05-10T02:09:24;6.90;;;4.20;;
65896;SDS011;52677;50.898;10.854;2023-05-10T02:11:28;8.30;;;3.97;;
65896;SDS011;52677;50.898;10.854;2023-05-10T02:13:29;5.20;;;4.00;;
65896;SDS011;52677;50.898;10.854;2023-05-10T02:15:34;10.68;;;4.30;;
65896;SDS011;52677;50.898;10.854;2023-05-10T02:17:36;4.50;;;3.65;;
65896;SDS011;52677;50.898;10.854;2023-05-10T02:19:38;4.72;;;3.70;;
65896;SDS011;52677;50.898;10.854;2023-05-10T02:21:40;6.20;;;4.55;;
65896;SDS011;52677;50.898;10.854;2023-05-10T02:23:42;5.43;;;3.77;;
65896;SDS011;52677;50.898;10.854;2023-05-10T02:25:44;5.33;;;4.10;;
65896;SDS011;52677;50.898;10.854;2023-05-10T02:27:45;4.75;;;4.07;;
65896;SDS011;52677;50.898;10.854;2023-05-10T02:29:47;6.18;;;4.18;;
65896;SDS011;52677;50.898;10.854;2023-05-10T02:31:51;5.53;;;4.20;;
65896;SDS011;52677;50.898;10.854;2023-05-10T02:33:53;6.05;;;4.30;;
65896;SDS011;52677;50.898;10.854;2023-05-10T02:35:54;5.05;;;4.13;;
65896;SDS011;52677;50.898;10.854;2023-05-10T02:37:56;5.53;;;4.07;;
65896;SDS011;52677;50.898;10.854;2023-05-10T02:39:58;5.20;;;3.85;;
65896;SDS011;52677;50.898;10.854;2023-05-10T02:41:59;8.00;;;4.35;;
65896;SDS011;52677;50.898;10.854;2023-05-10T02:44:02;5.82;;;4.32;;
65896;SDS011;52677;50.898;10.854;2023-05-10T02:46:03;5.00;;;4.50;;
65896;SDS011;52677;50.898;10.854;2023-05-10T02:48:04;6.63;;;4.25;;
65896;SDS011;52677;50.898;10.854;2023-05-10T02:50:04;5.22;;;3.97;;
65896;SDS011;52677;50.898;10.854;2023-05-10T02:52:05;6.57;;;4.78;;
65896;SDS011;52677;50.898;10.854;2023-05-10T02:54:18;6.70;;;4.70;;
65896;SDS011;52677;50.898;10.854;2023-05-10T02:56:25;5.57;;;4.28;;
65896;SDS011;52677;50.898;10.854;2023-05-10T02:58:31;7.05;;;5.00;;
65896;SDS011;52677;50.898;10.854;2023-05-10T03:00:32;5.50;;;4.50;;
65896;SDS011;52677;50.898;10.854;2023-05-10T03:02:32;14.43;;;6.20;;
65896;SDS011;52677;50.898;10.854;2023-05-10T03:04:32;7.90;;;4.97;;
65896;SDS011;52677;50.898;10.854;2023-05-10T03:06:33;10.27;;;5.40;;
65896;SDS011;52677;50.898;10.854;2023-05-10T03:08:33;5.93;;;4.65;;
65896;SDS011;52677;50.898;10.854;2023-05-10T03:10:35;7.05;;;5.22;;
65896;SDS011;52677;50.898;10.854;2023-05-10T03:17:30;11.75;;;5.20;;
65896;SDS011;52677;50.898;10.854;2023-05-10T03:19:45;9.18;;;5.10;;
65896;SDS011;52677;50.898;10.854;2023-05-10T03:21:54;7.03;;;4.90;;
65896;SDS011;52677;50.898;10.854;2023-05-10T03:24:02;7.20;;;5.25;;
65896;SDS011;52677;50.898;10.854;2023-05-10T03:26:07;9.00;;;5.55;;
65896;SDS011;52677;50.898;10.854;2023-05-10T03:28:07;9.27;;;5.15;;
65896;SDS011;52677;50.898;10.854;2023-05-10T03:30:10;9.73;;;5.60;;
65896;SDS011;52677;50.898;10.854;2023-05-10T03:32:12;10.48;;;5.88;;
65896;SDS011;52677;50.898;10.854;2023-05-10T03:34:12;13.55;;;6.80;;
65896;SDS011;52677;50.898;10.854;2023-05-10T03:36:13;10.52;;;5.72;;
65896;SDS011;52677;50.898;10.854;2023-05-10T03:38:13;7.70;;;5.38;;
65896;SDS011;52677;50.898;10.854;2023-05-10T03:40:14;11.45;;;6.60;;
65896;SDS011;52677;50.898;10.854;2023-05-10T03:42:14;8.68;;;6.43;;
65896;SDS011;52677;50.898;10.854;2023-05-10T03:44:14;8.48;;;6.38;;
65896;SDS011;52677;50.898;10.854;2023-05-10T03:46:15;12.27;;;5.90;;
65896;SDS011;52677;50.898;10.854;2023-05-10T03:48:15;6.70;;;5.38;;
65896;SDS011;52677;50.898;10.854;2023-05-10T03:50:15;7.97;;;5.82;;
65896;SDS011;52677;50.898;10.854;2023-05-10T03:52:16;7.38;;;5.72;;
65896;SDS011;52677;50.898;10.854;2023-05-10T03:54:16;7.82;;;6.40;;
65896;SDS011;52677;50.898;10.854;2023-05-10T03:56:17;7.82;;;6.35;;
65896;SDS011;52677;50.898;10.854;2023-05-10T03:58:17;8.85;;;5.63;;
65896;SDS011;52677;50.898;10.854;2023-05-10T04:00:18;9.02;;;5.72;;
65896;SDS011;52677;50.898;10.854;2023-05-10T04:02:18;6.95;;;5.72;;
65896;SDS011;52677;50.898;10.854;2023-05-10T04:04:19;7.68;;;6.30;;
65896;SDS011;52677;50.898;10.854;2023-05-10T04:06:20;7.90;;;6.07;;
65896;SDS011;52677;50.898;10.854;2023-05-10T04:08:21;7.95;;;6.30;;
65896;SDS011;52677;50.898;10.854;2023-05-10T04:10:21;9.98;;;6.35;;
65896;SDS011;52677;50.898;10.854;2023-05-10T04:12:21;9.25;;;5.45;;
65896;SDS011;52677;50.898;10.854;2023-05-10T04:14:22;8.07;;;6.20;;
65896;SDS011;52677;50.898;10.854;2023-05-10T04:16:22;8.10;;;6.32;;
65896;SDS011;52677;50.898;10.854;2023-05-10T04:18:22;8.05;;;6.22;;
65896;SDS011;52677;50.898;10.854;2023-05-10T04:20:22;7.07;;;5.93;;
65896;SDS011;52677;50.898;10.854;2023-05-10T04:22:23;9.10;;;5.90;;
65896;SDS011;52677;50.898;10.854;2023-05-10T04:24:23;10.93;;;6.78;;
65896;SDS011;52677;50.898;10.854;2023-05-10T04:26:24;8.32;;;6.85;;
65896;SDS011;52677;50.898;10.854;2023-05-10T04:28:25;9.50;;;6.47;;
65896;SDS011;52677;50.898;10.854;2023-05-10T04:30:25;10.77;;;7.00;;
65896;SDS011;52677;50.898;10.854;2023-05-10T04:34:29;8.75;;;6.72;;
65896;SDS011;52677;50.898;10.854;2023-05-10T04:36:29;9.52;;;6.38;;
65896;SDS011;52677;50.898;10.854;2023-05-10T04:38:29;11.45;;;7.47;;
65896;SDS011;52677;50.898;10.854;2023-05-10T04:40:30;10.20;;;6.45;;
65896;SDS011;52677;50.898;10.854;2023-05-10T04:42:30;7.28;;;5.80;;
65896;SDS011;52677;50.898;10.854;2023-05-10T04:44:31;14.30;;;7.55;;
65896;SDS011;52677;50.898;10.854;2023-05-10T04:46:32;13.05;;;6.88;;
65896;SDS011;52677;50.898;10.854;2023-05-10T04:48:32;9.40;;;6.18;;
65896;SDS011;52677;50.898;10.854;2023-05-10T04:50:33;14.32;;;8.23;;
65896;SDS011;52677;50.898;10.854;2023-05-10T04:52:33;9.10;;;6.18;;
65896;SDS011;52677;50.898;10.854;2023-05-10T04:54:33;13.48;;;6.28;;
65896;SDS011;52677;50.898;10.854;2023-05-10T04:56:34;12.40;;;6.15;;
65896;SDS011;52677;50.898;10.854;2023-05-10T04:58:35;8.35;;;5.45;;
65896;SDS011;52677;50.898;10.854;2023-05-10T05:00:35;12.90;;;5.90;;
65896;SDS011;52677;50.898;10.854;2023-05-10T05:02:35;14.50;;;6.55;;
65896;SDS011;52677;50.898;10.854;2023-05-10T05:04:36;9.90;;;5.53;;
65896;SDS011;52677;50.898;10.854;2023-05-10T05:06:36;8.82;;;5.35;;
65896;SDS011;52677;50.898;10.854;2023-05-10T05:08:36;6.13;;;4.78;;
65896;SDS011;52677;50.898;10.854;2023-05-10T05:10:37;5.88;;;4.82;;
65896;SDS011;52677;50.898;10.854;2023-05-10T05:12:37;8.40;;;4.93;;
65896;SDS011;52677;50.898;10.854;2023-05-10T05:14:37;6.35;;;4.68;;
65896;SDS011;52677;50.898;10.854;2023-05-10T05:16:38;7.00;;;4.78;;
65896;SDS011;52677;50.898;10.854;2023-05-10T05:18:38;5.60;;;4.18;;
65896;SDS011;52677;50.898;10.854;2023-05-10T05:20:38;8.50;;;4.38;;
65896;SDS011;52677;50.898;10.854;2023-05-10T05:22:39;4.40;;;4.00;;
65896;SDS011;52677;50.898;10.854;2023-05-10T05:24:39;6.03;;;4.57;;
65896;SDS011;52677;50.898;10.854;2023-05-10T05:26:39;5.20;;;4.07;;
65896;SDS011;52677;50.898;10.854;2023-05-10T05:28:40;5.32;;;4.13;;
65896;SDS011;52677;50.898;10.854;2023-05-10T05:30:40;5.03;;;4.13;;
65896;SDS011;52677;50.898;10.854;2023-05-10T05:32:40;6.13;;;3.88;;
65896;SDS011;52677;50.898;10.854;2023-05-10T05:34:41;6.43;;;4.10;;
65896;SDS011;52677;50.898;10.854;2023-05-10T05:36:41;5.20;;;4.10;;
65896;SDS011;52677;50.898;10.854;2023-05-10T05:38:41;4.43;;;3.67;;
65896;SDS011;52677;50.898;10.854;2023-05-10T05:40:42;6.38;;;3.78;;
65896;SDS011;52677;50.898;10.854;2023-05-10T05:42:43;5.07;;;3.50;;
65896;SDS011;52677;50.898;10.854;2023-05-10T05:44:43;5.00;;;3.67;;
65896;SDS011;52677;50.898;10.854;2023-05-10T05:46:44;3.17;;;2.70;;
65896;SDS011;52677;50.898;10.854;2023-05-10T05:48:44;4.82;;;2.60;;
65896;SDS011;52677;50.898;10.854;2023-05-10T05:50:45;4.20;;;2.80;;
65896;SDS011;52677;50.898;10.854;2023-05-10T05:52:45;3.70;;;2.65;;
65896;SDS011;52677;50.898;10.854;2023-05-10T05:54:46;2.83;;;2.17;;
65896;SDS011;52677;50.898;10.854;2023-05-10T05:56:46;2.85;;;2.10;;
65896;SDS011;52677;50.898;10.854;2023-05-10T05:58:46;2.90;;;2.00;;
65896;SDS011;52677;50.898;10.854;2023-05-10T06:00:47;3.08;;;2.20;;
65896;SDS011;52677;50.898;10.854;2023-05-10T06:02:48;7.55;;;5.63;;
65896;SDS011;52677;50.898;10.854;2023-05-10T06:04:48;10.75;;;7.25;;
65896;SDS011;52677;50.898;10.854;2023-05-10T06:06:48;6.93;;;4.82;;
65896;SDS011;52677;50.898;10.854;2023-05-10T06:08:49;5.05;;;3.83;;
65896;SDS011;52677;50.898;10.854;2023-05-10T06:10:49;4.30;;;3.60;;
65896;SDS011;52677;50.898;10.854;2023-05-10T06:12:49;4.45;;;2.80;;
65896;SDS011;52677;50.898;10.854;2023-05-10T06:14:50;3.38;;;2.20;;
65896;SDS011;52677;50.898;10.854;2023-05-10T06:16:51;3.60;;;2.00;;
65896;SDS011;52677;50.898;10.854;2023-05-10T06:18:51;2.65;;;1.70;;
65896;SDS011;52677;50.898;10.854;2023-05-10T06:20:51;5.57;;;4.32;;
65896;SDS011;52677;50.898;10.854;2023-05-10T06:22:51;6.45;;;4.40;;
65896;SDS011;52677;50.898;10.854;2023-05-10T06:24:52;6.70;;;4.82;;
65896;SDS011;52677;50.898;10.854;2023-05-10T06:26:52;3.50;;;2.38;;
65896;SDS011;52677;50.898;10.854;2023-05-10T06:28:52;3.00;;;2.35;;
65896;SDS011;52677;50.898;10.854;2023-05-10T06:30:53;3.22;;;2.50;;
65896;SDS011;52677;50.898;10.854;2023-05-10T06:32:53;2.38;;;1.73;;
65896;SDS011;52677;50.898;10.854;2023-05-10T06:34:54;3.20;;;1.45;;
65896;SDS011;52677;50.898;10.854;2023-05-10T06:36:55;2.58;;;1.75;;
65896;SDS011;52677;50.898;10.854;2023-05-10T06:38:55;4.20;;;1.80;;
65896;SDS011;52677;50.898;10.854;2023-05-10T06:40:55;1.92;;;1.40;;
65896;SDS011;52677;50.898;10.854;2023-05-10T06:42:56;1.80;;;1.30;;
65896;SDS011;52677;50.898;10.854;2023-05-10T06:44:56;2.03;;;1.55;;
65896;SDS011;52677;50.898;10.854;2023-05-10T06:46:56;1.95;;;1.50;;
65896;SDS011;52677;50.898;10.854;2023-05-10T06:48:57;1.63;;;1.45;;
65896;SDS011;52677;50.898;10.854;2023-05-10T06:50:57;1.92;;;1.35;;
65896;SDS011;52677;50.898;10.854;2023-05-10T06:52:57;2.33;;;1.20;;
65896;SDS011;52677;50.898;10.854;2023-05-10T06:54:58;1.48;;;1.33;;
65896;SDS011;52677;50.898;10.854;2023-05-10T06:56:58;1.30;;;1.20;;
65896;SDS011;52677;50.898;10.854;2023-05-10T06:58:58;1.80;;;1.42;;
65896;SDS011;52677;50.898;10.854;2023-05-10T07:01:02;1.15;;;1.05;;
65896;SDS011;52677;50.898;10.854;2023-05-10T07:03:04;1.75;;;1.30;;
65896;SDS011;52677;50.898;10.854;2023-05-10T07:05:04;2.13;;;1.30;;
65896;SDS011;52677;50.898;10.854;2023-05-10T07:07:05;1.67;;;1.30;;
65896;SDS011;52677;50.898;10.854;2023-05-10T07:09:05;1.55;;;1.10;;
65896;SDS011;52677;50.898;10.854;2023-05-10T07:11:06;1.52;;;1.23;;
65896;SDS011;52677;50.898;10.854;2023-05-10T07:13:10;1.80;;;1.27;;
65896;SDS011;52677;50.898;10.854;2023-05-10T07:15:10;1.40;;;1.30;;
65896;SDS011;52677;50.898;10.854;2023-05-10T07:17:10;1.20;;;1.10;;
65896;SDS011;52677;50.898;10.854;2023-05-10T07:19:11;2.08;;;1.00;;
65896;SDS011;52677;50.898;10.854;2023-05-10T07:21:11;0.95;;;0.90;;
65896;SDS011;52677;50.898;10.854;2023-05-10T07:23:11;3.00;;;0.90;;
65896;SDS011;52677;50.898;10.854;2023-05-10T07:25:12;0.93;;;0.80;;
65896;SDS011;52677;50.898;10.854;2023-05-10T07:27:12;0.70;;;0.70;;
65896;SDS011;52677;50.898;10.854;2023-05-10T07:29:13;1.17;;;0.80;;
65896;SDS011;52677;50.898;10.854;2023-05-10T07:31:13;0.80;;;0.80;;
65896;SDS011;52677;50.898;10.854;2023-05-10T07:33:13;0.80;;;0.80;;
65896;SDS011;52677;50.898;10.854;2023-05-10T07:35:15;0.70;;;0.70;;
65896;SDS011;52677;50.898;10.854;2023-05-10T07:37:15;1.00;;;0.90;;
65896;SDS011;52677;50.898;10.854;2023-05-10T07:39:16;0.70;;;0.70;;
65896;SDS011;52677;50.898;10.854;2023-05-10T07:41:16;1.15;;;0.70;;
65896;SDS011;52677;50.898;10.854;2023-05-10T07:43:17;1.13;;;0.80;;
65896;SDS011;52677;50.898;10.854;2023-05-10T07:45:17;0.60;;;0.60;;
65896;SDS011;52677;50.898;10.854;2023-05-10T07:47:18;0.70;;;0.60;;
65896;SDS011;52677;50.898;10.854;2023-05-10T07:49:18;0.65;;;0.65;;
65896;SDS011;52677;50.898;10.854;2023-05-10T07:51:19;1.00;;;0.85;;
65896;SDS011;52677;50.898;10.854;2023-05-10T07:53:19;1.65;;;0.60;;
65896;SDS011;52677;50.898;10.854;2023-05-10T07:55:20;0.50;;;0.50;;
65896;SDS011;52677;50.898;10.854;2023-05-10T07:57:23;0.50;;;0.50;;
65896;SDS011;52677;50.898;10.854;2023-05-10T07:59:24;0.60;;;0.60;;
65896;SDS011;52677;50.898;10.854;2023-05-10T08:01:24;0.50;;;0.50;;
65896;SDS011;52677;50.898;10.854;2023-05-10T08:03:25;0.90;;;0.60;;
65896;SDS011;52677;50.898;10.854;2023-05-10T08:05:26;0.52;;;0.52;;
65896;SDS011;52677;50.898;10.854;2023-05-10T08:07:26;1.02;;;0.60;;
65896;SDS011;52677;50.898;10.854;2023-05-10T08:09:26;0.50;;;0.50;;
65896;SDS011;52677;50.898;10.854;2023-05-10T08:11:27;1.10;;;0.68;;
65896;SDS011;52677;50.898;10.854;2023-05-10T08:13:27;0.50;;;0.50;;
65896;SDS011;52677;50.898;10.854;2023-05-10T08:15:28;0.77;;;0.60;;
65896;SDS011;52677;50.898;10.854;2023-05-10T08:17:28;0.60;;;0.60;;
65896;SDS011;52677;50.898;10.854;2023-05-10T08:19:28;0.68;;;0.68;;
65896;SDS011;52677;50.898;10.854;2023-05-10T08:21:29;1.40;;;0.73;;
65896;SDS011;52677;50.898;10.854;2023-05-10T08:23:29;0.60;;;0.60;;
65896;SDS011;52677;50.898;10.854;2023-05-10T08:25:29;0.65;;;0.65;;
65896;SDS011;52677;50.898;10.854;2023-05-10T08:27:30;1.95;;;0.80;;
65896;SDS011;52677;50.898;10.854;2023-05-10T08:29:30;1.05;;;0.60;;
65896;SDS011;52677;50.898;10.854;2023-05-10T08:31:30;3.20;;;1.73;;
65896;SDS011;52677;50.898;10.854;2023-05-10T08:33:31;2.03;;;0.90;;
65896;SDS011;52677;50.898;10.854;2023-05-10T08:35:31;2.67;;;1.20;;
65896;SDS011;52677;50.898;10.854;2023-05-10T08:37:33;1.03;;;0.70;;
65896;SDS011;52677;50.898;10.854;2023-05-10T08:39:36;1.90;;;1.13;;
65896;SDS011;52677;50.898;10.854;2023-05-10T08:41:37;0.70;;;0.70;;
65896;SDS011;52677;50.898;10.854;2023-05-10T08:43:39;0.80;;;0.80;;
65896;SDS011;52677;50.898;10.854;2023-05-10T08:45:42;2.97;;;1.70;;
65896;SDS011;52677;50.898;10.854;2023-05-10T08:47:46;2.60;;;0.98;;
65896;SDS011;52677;50.898;10.854;2023-05-10T08:49:47;0.70;;;0.70;;
65896;SDS011;52677;50.898;10.854;2023-05-10T08:51:51;0.90;;;0.50;;
65896;SDS011;52677;50.898;10.854;2023-05-10T08:53:55;0.60;;;0.55;;
65896;SDS011;52677;50.898;10.854;2023-05-10T08:55:55;0.60;;;0.60;;
65896;SDS011;52677;50.898;10.854;2023-05-10T08:57:55;1.52;;;0.80;;
65896;SDS011;52677;50.898;10.854;2023-05-10T08:59:56;1.27;;;0.90;;
65896;SDS011;52677;50.898;10.854;2023-05-10T09:01:59;4.13;;;2.47;;
65896;SDS011;52677;50.898;10.854;2023-05-10T09:04:01;0.75;;;0.60;;
65896;SDS011;52677;50.898;10.854;2023-05-10T09:06:04;0.70;;;0.70;;
65896;SDS011;52677;50.898;10.854;2023-05-10T09:08:05;1.35;;;0.82;;
65896;SDS011;52677;50.898;10.854;2023-05-10T09:10:06;1.95;;;1.27;;
65896;SDS011;52677;50.898;10.854;2023-05-10T09:12:09;0.60;;;0.60;;
65896;SDS011;52677;50.898;10.854;2023-05-10T09:14:11;2.58;;;2.03;;
65896;SDS011;52677;50.898;10.854;2023-05-10T09:16:12;2.90;;;1.67;;
65896;SDS011;52677;50.898;10.854;2023-05-10T09:18:12;4.28;;;2.58;;
65896;SDS011;52677;50.898;10.854;2023-05-10T09:20:13;2.38;;;1.35;;
65896;SDS011;52677;50.898;10.854;2023-05-10T09:22:13;1.70;;;0.80;;
65896;SDS011;52677;50.898;10.854;2023-05-10T09:24:13;4.55;;;2.40;;
65896;SDS011;52677;50.898;10.854;2023-05-10T09:26:14;4.20;;;1.95;;
65896;SDS011;52677;50.898;10.854;2023-05-10T09:28:14;2.15;;;1.20;;
65896;SDS011;52677;50.898;10.854;2023-05-10T09:30:28;4.60;;;1.95;;
65896;SDS011;52677;50.898;10.854;2023-05-10T09:32:42;4.13;;;1.38;;
65896;SDS011;52677;50.898;10.854;2023-05-10T09:34:44;1.50;;;0.85;;
65896;SDS011;52677;50.898;10.854;2023-05-10T09:36:52;0.77;;;0.60;;
65896;SDS011;52677;50.898;10.854;2023-05-10T09:38:57;0.70;;;0.70;;
65896;SDS011;52677;50.898;10.854;2023-05-10T09:40:57;0.80;;;0.75;;
65896;SDS011;52677;50.898;10.854;2023-05-10T09:42:59;1.95;;;0.70;;
65896;SDS011;52677;50.898;10.854;2023-05-10T09:45:06;1.70;;;0.70;;
65896;SDS011;52677;50.898;10.854;2023-05-10T09:47:07;0.90;;;0.70;;
65896;SDS011;52677;50.898;10.854;2023-05-10T09:49:07;0.75;;;0.63;;
65896;SDS011;52677;50.898;10.854;2023-05-10T09:51:08;1.08;;;1.00;;
65896;SDS011;52677;50.898;10.854;2023-05-10T09:53:08;1.10;;;0.80;;
65896;SDS011;52677;50.898;10.854;2023-05-10T09:55:08;1.95;;;0.80;;
65896;SDS011;52677;50.898;10.854;2023-05-10T09:57:14;0.95;;;0.85;;
65896;SDS011;52677;50.898;10.854;2023-05-10T09:59:20;0.63;;;0.63;;
65896;SDS011;52677;50.898;10.854;2023-05-10T10:01:21;0.70;;;0.70;;
65896;SDS011;52677;50.898;10.854;2023-05-10T10:03:26;2.85;;;0.70;;
65896;SDS011;52677;50.898;10.854;2023-05-10T10:05:30;0.60;;;0.60;;
65896;SDS011;52677;50.898;10.854;2023-05-10T10:07:31;0.70;;;0.70;;
65896;SDS011;52677;50.898;10.854;2023-05-10T10:09:32;0.50;;;0.50;;
65896;SDS011;52677;50.898;10.854;2023-05-10T10:11:37;0.70;;;0.60;;
65896;SDS011;52677;50.898;10.854;2023-05-10T10:13:38;0.60;;;0.60;;
65896;SDS011;52677;50.898;10.854;2023-05-10T10:15:38;1.60;;;0.70;;
65896;SDS011;52677;50.898;10.854;2023-05-10T10:17:39;2.75;;;0.80;;
65896;SDS011;52677;50.898;10.854;2023-05-10T10:19:40;0.60;;;0.60;;
65896;SDS011;52677;50.898;10.854;2023-05-10T10:21:41;0.90;;;0.73;;
65896;SDS011;52677;50.898;10.854;2023-05-10T10:23:41;0.60;;;0.60;;
65896;SDS011;52677;50.898;10.854;2023-05-10T10:25:43;0.77;;;0.70;;
65896;SDS011;52677;50.898;10.854;2023-05-10T10:29:58;1.25;;;0.73;;
65896;SDS011;52677;50.898;10.854;2023-05-10T10:32:20;0.80;;;0.80;;
65896;SDS011;52677;50.898;10.854;2023-05-10T10:34:29;2.03;;;0.90;;
65896;SDS011;52677;50.898;10.854;2023-05-10T10:36:30;1.30;;;1.00;;
65896;SDS011;52677;50.898;10.854;2023-05-10T10:41:01;1.60;;;1.23;;
65896;SDS011;52677;50.898;10.854;2023-05-10T10:45:26;1.92;;;1.30;;
65896;SDS011;52677;50.898;10.854;2023-05-10T10:47:28;1.33;;;1.10;;
65896;SDS011;52677;50.898;10.854;2023-05-10T10:49:32;2.42;;;1.58;;
65896;SDS011;52677;50.898;10.854;2023-05-10T10:51:37;1.92;;;1.13;;
65896;SDS011;52677;50.898;10.854;2023-05-10T10:53:39;1.30;;;1.00;;
65896;SDS011;52677;50.898;10.854;2023-05-10T10:55:47;2.33;;;1.20;;
65896;SDS011;52677;50.898;10.854;2023-05-10T10:57:51;1.40;;;0.80;;
65896;SDS011;52677;50.898;10.854;2023-05-10T11:00:23;0.98;;;0.90;;
65896;SDS011;52677;50.898;10.854;2023-05-10T11:02:33;1.45;;;0.75;;
65896;SDS011;52677;50.898;10.854;2023-05-10T11:04:43;0.77;;;0.75;;
65896;SDS011;52677;50.898;10.854;2023-05-10T11:06:46;0.93;;;0.82;;
65896;SDS011;52677;50.898;10.854;2023-05-10T11:08:46;1.45;;;0.90;;
65896;SDS011;52677;50.898;10.854;2023-05-10T11:15:01;1.10;;;0.90;;
65896;SDS011;52677;50.898;10.854;2023-05-10T11:17:01;1.63;;;1.17;;
65896;SDS011;52677;50.898;10.854;2023-05-10T11:19:22;0.80;;;0.80;;
65896;SDS011;52677;50.898;10.854;2023-05-10T11:21:28;1.05;;;0.95;;
65896;SDS011;52677;50.898;10.854;2023-05-10T11:23:30;2.25;;;1.10;;
65896;SDS011;52677;50.898;10.854;2023-05-10T11:25:43;1.38;;;1.13;;
65896;SDS011;52677;50.898;10.854;2023-05-10T11:27:46;1.80;;;1.00;;
65896;SDS011;52677;50.898;10.854;2023-05-10T11:29:51;2.85;;;1.08;;
65896;SDS011;52677;50.898;10.854;2023-05-10T11:31:51;1.83;;;1.20;;
65896;SDS011;52677;50.898;10.854;2023-05-10T11:33:52;1.33;;;1.20;;
65896;SDS011;52677;50.898;10.854;2023-05-10T11:35:54;1.20;;;1.10;;
65896;SDS011;52677;50.898;10.854;2023-05-10T11:37:54;1.33;;;1.20;;
65896;SDS011;52677;50.898;10.854;2023-05-10T11:39:55;1.60;;;1.17;;
65896;SDS011;52677;50.898;10.854;2023-05-10T11:41:55;1.30;;;1.20;;
65896;SDS011;52677;50.898;10.854;2023-05-10T11:43:56;1.20;;;1.08;;
65896;SDS011;52677;50.898;10.854;2023-05-10T11:45:57;2.00;;;1.60;;
65896;SDS011;52677;50.898;10.854;2023-05-10T11:47:57;1.70;;;1.60;;
65896;SDS011;52677;50.898;10.854;2023-05-10T11:49:58;3.50;;;2.22;;
65896;SDS011;52677;50.898;10.854;2023-05-10T11:52:06;2.17;;;1.98;;
65896;SDS011;52677;50.898;10.854;2023-05-10T11:54:08;2.00;;;1.70;;
65896;SDS011;52677;50.898;10.854;2023-05-10T11:56:10;3.67;;;2.30;;
65896;SDS011;52677;50.898;10.854;2023-05-10T11:58:11;2.35;;;2.10;;
65896;SDS011;52677;50.898;10.854;2023-05-10T12:00:14;2.42;;;2.22;;
65896;SDS011;52677;50.898;10.854;2023-05-10T12:02:14;2.30;;;1.80;;
65896;SDS011;52677;50.898;10.854;2023-05-10T12:04:15;2.20;;;1.50;;
65896;SDS011;52677;50.898;10.854;2023-05-10T12:06:15;2.22;;;1.70;;
65896;SDS011;52677;50.898;10.854;2023-05-10T12:08:20;3.13;;;1.70;;
65896;SDS011;52677;50.898;10.854;2023-05-10T12:10:25;1.52;;;1.33;;
65896;SDS011;52677;50.898;10.854;2023-05-10T12:12:26;1.88;;;1.50;;
65896;SDS011;52677;50.898;10.854;2023-05-10T12:14:26;1.40;;;1.30;;
65896;SDS011;52677;50.898;10.854;2023-05-10T12:16:28;2.08;;;1.65;;
65896;SDS011;52677;50.898;10.854;2023-05-10T12:18:29;2.13;;;1.80;;
65896;SDS011;52677;50.898;10.854;2023-05-10T12:20:29;2.58;;;1.60;;
65896;SDS011;52677;50.898;10.854;2023-05-10T12:22:30;2.72;;;1.58;;
65896;SDS011;52677;50.898;10.854;2023-05-10T12:24:34;3.17;;;2.00;;
65896;SDS011;52677;50.898;10.854;2023-05-10T12:26:35;2.70;;;2.00;;
65896;SDS011;52677;50.898;10.854;2023-05-10T12:28:36;3.90;;;1.95;;
65896;SDS011;52677;50.898;10.854;2023-05-10T12:30:37;2.30;;;1.95;;
65896;SDS011;52677;50.898;10.854;2023-05-10T12:32:39;2.03;;;1.65;;
65896;SDS011;52677;50.898;10.854;2023-05-10T12:34:40;1.20;;;1.00;;